createdAt,value
2017-12-27T00:00:26.994Z,4.12
2017-12-27T00:01:26.587Z,4.06
2017-12-27T00:02:26.302Z,4.12
2017-12-27T00:03:26.435Z,4.06
2017-12-27T00:04:26.419Z,4.12
2017-12-27T00:05:26.488Z,4.12
2017-12-27T00:06:26.393Z,4.12
2017-12-27T00:07:26.529Z,4.12
2017-12-27T00:08:26.545Z,4.12
2017-12-27T00:09:27.258Z,4.12
2017-12-27T00:10:26.420Z,4.12
2017-12-27T00:11:26.326Z,4.12
2017-12-27T00:12:26.266Z,4.12
2017-12-27T00:13:26.442Z,4.12
2017-12-27T00:14:26.537Z,4.12
2017-12-27T00:15:26.531Z,4.06
2017-12-27T00:16:26.448Z,4.06
2017-12-27T00:17:26.366Z,4.06
2017-12-27T00:18:26.214Z,4.06
2017-12-27T00:19:26.428Z,4.06
2017-12-27T00:20:26.202Z,4.06
2017-12-27T00:21:26.531Z,4.06
2017-12-27T00:22:26.300Z,4
2017-12-27T00:23:26.382Z,4
2017-12-27T00:24:26.382Z,4
2017-12-27T00:25:26.568Z,4
2017-12-27T00:26:26.774Z,3.94
2017-12-27T00:27:26.512Z,3.94
2017-12-27T00:28:26.582Z,3.87
2017-12-27T00:29:26.499Z,3.87
2017-12-27T00:30:26.510Z,3.87
2017-12-27T00:31:26.515Z,3.87
2017-12-27T00:32:26.243Z,3.94
2017-12-27T00:33:26.348Z,3.94
2017-12-27T00:34:26.241Z,3.94
2017-12-27T00:35:26.411Z,3.94
2017-12-27T00:36:26.577Z,3.87
2017-12-27T00:37:26.529Z,3.87
2017-12-27T00:38:26.327Z,3.87
2017-12-27T00:39:36.568Z,3.81
2017-12-27T00:40:26.887Z,3.87
2017-12-27T00:41:26.825Z,3.81
2017-12-27T00:42:26.972Z,3.81
2017-12-27T00:43:40.335Z,3.81
2017-12-27T00:44:26.929Z,3.87
2017-12-27T00:45:30.344Z,3.81
2017-12-27T00:46:27.239Z,3.81
2017-12-27T00:47:26.392Z,3.81
2017-12-27T00:48:26.735Z,3.81
2017-12-27T00:49:26.705Z,3.81
2017-12-27T00:50:26.404Z,3.81
2017-12-27T00:51:26.464Z,3.81
2017-12-27T00:52:26.456Z,3.81
2017-12-27T00:54:28.228Z,3.81
2017-12-27T00:55:27.425Z,3.81
2017-12-27T00:56:26.556Z,3.81
2017-12-27T00:57:26.495Z,3.75
2017-12-27T00:58:26.831Z,3.81
2017-12-27T00:59:27.895Z,3.81
2017-12-27T01:00:26.661Z,3.81
2017-12-27T01:01:26.990Z,3.75
2017-12-27T01:02:27.983Z,3.81
2017-12-27T01:03:42.552Z,3.75
2017-12-27T01:04:27.208Z,3.81
2017-12-27T01:05:27.643Z,3.81
2017-12-27T01:06:31.736Z,3.75
2017-12-27T01:07:26.287Z,3.81
2017-12-27T01:08:38.852Z,3.81
2017-12-27T01:09:27.687Z,3.81
2017-12-27T01:10:27.478Z,3.87
2017-12-27T01:11:26.843Z,3.87
2017-12-27T01:12:27.906Z,3.87
2017-12-27T01:13:27.636Z,3.87
2017-12-27T01:14:27.720Z,3.87
2017-12-27T01:15:26.938Z,3.87
2017-12-27T01:16:27.731Z,3.87
2017-12-27T01:17:28.748Z,3.94
2017-12-27T01:18:30.256Z,3.94
2017-12-27T01:19:27.899Z,3.94
2017-12-27T01:20:27.409Z,3.94
2017-12-27T01:21:26.359Z,3.87
2017-12-27T01:22:26.563Z,3.94
2017-12-27T01:23:27.055Z,3.87
2017-12-27T01:24:26.640Z,3.87
2017-12-27T01:25:26.559Z,3.87
2017-12-27T01:26:26.520Z,3.87
2017-12-27T01:27:26.452Z,3.87
2017-12-27T01:28:26.787Z,3.87
2017-12-27T01:29:32.020Z,3.87
2017-12-27T01:30:26.599Z,3.87
2017-12-27T01:31:26.829Z,3.87
2017-12-27T01:34:26.781Z,3.87
2017-12-27T01:35:27.262Z,3.87
2017-12-27T01:36:26.734Z,3.87
2017-12-27T01:37:26.535Z,3.87
2017-12-27T01:38:26.544Z,3.87
2017-12-27T01:39:26.507Z,3.87
2017-12-27T01:40:26.492Z,3.87
2017-12-27T01:41:26.573Z,3.87
2017-12-27T01:42:27.917Z,3.94
2017-12-27T01:43:26.718Z,3.94
2017-12-27T01:44:26.520Z,3.87
2017-12-27T01:45:26.778Z,3.94
2017-12-27T01:46:26.606Z,3.87
2017-12-27T01:47:27.261Z,3.87
2017-12-27T01:48:27.116Z,3.87
2017-12-27T01:49:29.015Z,3.87
2017-12-27T01:50:26.802Z,3.87
2017-12-27T01:51:27.203Z,3.94
2017-12-27T01:52:28.578Z,3.87
2017-12-27T01:53:26.638Z,3.94
2017-12-27T01:54:27.206Z,3.94
2017-12-27T01:55:27.143Z,3.94
2017-12-27T01:56:28.196Z,3.94
2017-12-27T01:57:26.679Z,3.87
2017-12-27T01:58:26.602Z,3.94
2017-12-27T01:59:28.280Z,3.87
2017-12-27T02:00:26.460Z,3.87
2017-12-27T02:01:26.585Z,3.87
2017-12-27T02:02:26.770Z,3.87
2017-12-27T02:03:26.933Z,3.81
2017-12-27T02:04:26.683Z,3.87
2017-12-27T02:05:27.754Z,3.81
2017-12-27T02:06:29.035Z,3.81
2017-12-27T02:07:26.316Z,3.75
2017-12-27T02:08:26.746Z,3.75
2017-12-27T02:09:26.564Z,3.75
2017-12-27T02:10:27.937Z,3.69
2017-12-27T02:11:27.019Z,3.75
2017-12-27T02:12:29.412Z,3.69
2017-12-27T02:13:29.175Z,3.69
2017-12-27T02:14:31.841Z,3.69
2017-12-27T02:15:26.722Z,3.69
2017-12-27T02:16:28.256Z,3.62
2017-12-27T02:17:31.086Z,3.62
2017-12-27T02:18:26.724Z,3.56
2017-12-27T02:19:26.632Z,3.62
2017-12-27T02:20:26.463Z,3.56
2017-12-27T02:21:31.562Z,3.56
2017-12-27T02:22:29.828Z,3.56
2017-12-27T02:23:27.500Z,3.56
2017-12-27T02:24:26.359Z,3.56
2017-12-27T02:25:26.626Z,3.56
2017-12-27T02:26:27.341Z,3.56
2017-12-27T02:27:27.838Z,3.56
2017-12-27T02:28:27.960Z,3.56
2017-12-27T02:29:28.969Z,3.56
2017-12-27T02:30:27.065Z,3.5
2017-12-27T02:31:27.730Z,3.56
2017-12-27T02:32:26.689Z,3.56
2017-12-27T02:33:26.498Z,3.62
2017-12-27T02:34:26.571Z,3.56
2017-12-27T02:35:26.665Z,3.62
2017-12-27T02:36:26.529Z,3.56
2017-12-27T02:37:26.866Z,3.62
2017-12-27T02:38:26.522Z,3.56
2017-12-27T02:39:27.971Z,3.62
2017-12-27T02:40:28.170Z,3.56
2017-12-27T02:41:26.926Z,3.56
2017-12-27T02:42:28.007Z,3.5
2017-12-27T02:43:27.407Z,3.56
2017-12-27T02:44:26.943Z,3.56
2017-12-27T02:45:26.492Z,3.56
2017-12-27T02:46:26.494Z,3.5
2017-12-27T02:47:26.529Z,3.62
2017-12-27T02:48:26.212Z,3.56
2017-12-27T02:49:28.905Z,3.56
2017-12-27T02:50:27.442Z,3.56
2017-12-27T02:51:27.889Z,3.62
2017-12-27T02:52:26.991Z,3.62
2017-12-27T02:53:29.533Z,3.62
2017-12-27T02:54:29.203Z,3.62
2017-12-27T02:55:26.706Z,3.69
2017-12-27T02:56:26.944Z,3.69
2017-12-27T02:57:26.561Z,3.69
2017-12-27T02:58:27.558Z,3.75
2017-12-27T02:59:28.458Z,3.75
2017-12-27T03:00:27.638Z,3.75
2017-12-27T03:01:30.726Z,3.75
2017-12-27T03:02:27.685Z,3.75
2017-12-27T03:03:27.173Z,3.75
2017-12-27T03:04:26.683Z,3.75
2017-12-27T03:05:26.885Z,3.75
2017-12-27T03:06:29.492Z,3.75
2017-12-27T03:07:27.001Z,3.75
2017-12-27T03:08:26.680Z,3.75
2017-12-27T03:09:26.612Z,3.75
2017-12-27T03:10:26.500Z,3.75
2017-12-27T03:11:29.462Z,3.81
2017-12-27T03:12:28.619Z,3.81
2017-12-27T03:13:26.522Z,3.75
2017-12-27T03:14:26.369Z,3.75
2017-12-27T03:15:26.549Z,3.75
2017-12-27T03:16:26.691Z,3.75
2017-12-27T03:17:26.680Z,3.75
2017-12-27T03:18:35.905Z,3.75
2017-12-27T03:20:26.389Z,3.75
2017-12-27T03:21:26.736Z,3.75
2017-12-27T03:22:28.429Z,3.75
2017-12-27T03:23:29.472Z,3.69
2017-12-27T03:24:27.567Z,3.75
2017-12-27T03:25:28.757Z,3.75
2017-12-27T03:26:29.075Z,3.75
2017-12-27T03:27:29.348Z,3.75
2017-12-27T03:28:29.065Z,3.75
2017-12-27T03:29:27.118Z,3.75
2017-12-27T03:30:26.565Z,3.75
2017-12-27T03:31:26.747Z,3.75
2017-12-27T03:32:27.503Z,3.75
2017-12-27T03:33:28.206Z,3.75
2017-12-27T03:34:27.153Z,3.75
2017-12-27T03:35:26.717Z,3.75
2017-12-27T03:36:27.322Z,3.75
2017-12-27T03:37:26.620Z,3.81
2017-12-27T03:38:29.205Z,3.81
2017-12-27T03:39:28.719Z,3.87
2017-12-27T03:40:28.911Z,3.81
2017-12-27T03:41:29.055Z,3.87
2017-12-27T03:42:27.916Z,3.87
2017-12-27T03:43:27.683Z,3.94
2017-12-27T03:53:47.092Z,3.94
2017-12-27T03:54:43.070Z,3.94
2017-12-27T04:02:27.346Z,3.87
2017-12-27T04:03:23.942Z,3.87
2017-12-27T04:04:23.835Z,3.87
2017-12-27T04:05:23.994Z,3.81
2017-12-27T04:06:23.910Z,3.81
2017-12-27T04:07:23.930Z,3.81
2017-12-27T04:08:23.787Z,3.81
2017-12-27T04:09:23.816Z,3.81
2017-12-27T04:10:23.960Z,3.81
2017-12-27T04:11:24.006Z,3.81
2017-12-27T04:12:24.191Z,3.81
2017-12-27T04:13:23.715Z,3.81
2017-12-27T04:14:23.671Z,3.81
2017-12-27T04:15:24.301Z,3.81
2017-12-27T04:16:23.865Z,3.87
2017-12-27T04:17:23.423Z,3.87
2017-12-27T04:18:23.534Z,3.87
2017-12-27T04:19:23.931Z,3.87
2017-12-27T04:20:23.446Z,3.94
2017-12-27T04:21:23.966Z,3.94
2017-12-27T04:22:24.397Z,3.94
2017-12-27T04:23:24.318Z,3.94
2017-12-27T04:24:23.412Z,3.87
2017-12-27T04:25:24.003Z,3.94
2017-12-27T04:26:23.741Z,3.94
2017-12-27T04:27:23.539Z,3.94
2017-12-27T04:28:24.397Z,3.87
2017-12-27T04:29:23.927Z,3.87
2017-12-27T04:30:23.747Z,3.87
2017-12-27T04:31:23.960Z,3.87
2017-12-27T04:32:23.920Z,3.94
2017-12-27T04:33:24.038Z,3.87
2017-12-27T04:34:24.103Z,3.87
2017-12-27T04:35:24.039Z,3.87
2017-12-27T04:36:24.083Z,3.87
2017-12-27T04:37:23.393Z,3.87
2017-12-27T04:38:24.128Z,3.87
2017-12-27T04:39:24.308Z,3.87
2017-12-27T04:40:24.141Z,3.87
2017-12-27T04:41:24.168Z,3.87
2017-12-27T04:42:24.074Z,3.94
2017-12-27T04:43:23.467Z,3.87
2017-12-27T04:44:23.922Z,3.87
2017-12-27T04:45:23.928Z,3.87
2017-12-27T04:46:24.081Z,3.87
2017-12-27T04:47:23.888Z,3.87
2017-12-27T04:48:23.954Z,3.87
2017-12-27T04:49:23.904Z,3.94
2017-12-27T04:50:23.923Z,3.87
2017-12-27T04:51:24.063Z,3.87
2017-12-27T04:52:24.148Z,3.87
2017-12-27T04:53:24.038Z,3.87
2017-12-27T04:54:23.385Z,3.87
2017-12-27T04:55:24.059Z,3.87
2017-12-27T04:56:23.875Z,3.87
2017-12-27T04:57:24.062Z,3.87
2017-12-27T04:58:24.135Z,3.87
2017-12-27T04:59:23.544Z,3.87
2017-12-27T05:00:24.099Z,3.87
2017-12-27T05:01:23.875Z,3.87
2017-12-27T05:02:23.988Z,3.87
2017-12-27T05:03:24.084Z,3.87
2017-12-27T05:04:23.958Z,3.87
2017-12-27T05:05:23.415Z,3.87
2017-12-27T05:06:23.592Z,3.87
2017-12-27T05:07:24.120Z,3.94
2017-12-27T05:08:23.936Z,3.94
2017-12-27T05:09:24.049Z,3.94
2017-12-27T05:10:24.485Z,3.94
2017-12-27T05:11:24.156Z,3.94
2017-12-27T05:12:24.291Z,3.94
2017-12-27T05:13:24.138Z,4
2017-12-27T05:14:24.091Z,4
2017-12-27T05:15:24.080Z,4
2017-12-27T05:16:23.993Z,4
2017-12-27T05:17:24.115Z,4
2017-12-27T05:18:24.072Z,4.06
2017-12-27T05:19:23.987Z,4
2017-12-27T05:20:23.837Z,4.06
2017-12-27T05:21:24.321Z,4.06
2017-12-27T05:22:24.022Z,4.06
2017-12-27T05:23:23.760Z,4.06
2017-12-27T05:24:23.933Z,4.06
2017-12-27T05:25:24.166Z,4.12
2017-12-27T05:26:24.121Z,4.12
2017-12-27T05:27:23.876Z,4.12
2017-12-27T05:28:24.033Z,4.12
2017-12-27T05:29:23.648Z,4.12
2017-12-27T05:30:24.219Z,4.12
2017-12-27T05:31:23.734Z,4.19
2017-12-27T05:32:24.056Z,4.19
2017-12-27T05:33:23.983Z,4.19
2017-12-27T05:34:24.092Z,4.19
2017-12-27T05:35:24.055Z,4.19
2017-12-27T05:36:24.177Z,4.25
2017-12-27T05:37:24.215Z,4.25
2017-12-27T05:38:24.093Z,4.25
2017-12-27T05:39:24.024Z,4.25
2017-12-27T05:40:24.117Z,4.25
2017-12-27T05:41:23.978Z,4.25
2017-12-27T05:42:24.027Z,4.31
2017-12-27T05:43:24.151Z,4.25
2017-12-27T05:44:24.233Z,4.31
2017-12-27T05:45:24.064Z,4.31
2017-12-27T05:46:23.987Z,4.31
2017-12-27T05:47:24.151Z,4.31
2017-12-27T05:48:24.185Z,4.37
2017-12-27T05:49:24.062Z,4.31
2017-12-27T05:50:24.077Z,4.44
2017-12-27T05:51:24.002Z,4.37
2017-12-27T05:52:24.461Z,4.37
2017-12-27T05:53:24.049Z,4.44
2017-12-27T05:54:24.444Z,4.44
2017-12-27T05:55:23.914Z,4.44
2017-12-27T05:56:23.599Z,4.44
2017-12-27T05:57:24.049Z,4.5
2017-12-27T05:58:23.933Z,4.44
2017-12-27T05:59:23.792Z,4.44
2017-12-27T06:00:24.216Z,4.5
2017-12-27T06:01:24.163Z,4.5
2017-12-27T06:02:23.951Z,4.5
2017-12-27T06:03:24.270Z,4.5
2017-12-27T06:04:24.350Z,4.5
2017-12-27T06:05:24.034Z,4.56
2017-12-27T06:06:24.936Z,4.5
2017-12-27T06:07:24.042Z,4.62
2017-12-27T06:08:23.824Z,4.56
2017-12-27T06:09:24.205Z,4.56
2017-12-27T06:10:24.147Z,4.56
2017-12-27T06:11:24.962Z,4.62
2017-12-27T06:12:24.487Z,4.56
2017-12-27T06:13:24.167Z,4.56
2017-12-27T06:14:24.060Z,4.62
2017-12-27T06:15:24.612Z,4.62
2017-12-27T06:16:23.880Z,4.62
2017-12-27T06:17:23.993Z,4.56
2017-12-27T06:18:24.230Z,4.62
2017-12-27T06:19:24.018Z,4.62
2017-12-27T06:20:24.419Z,4.62
2017-12-27T06:21:24.169Z,4.62
2017-12-27T06:22:24.570Z,4.62
2017-12-27T06:23:24.136Z,4.62
2017-12-27T06:24:24.551Z,4.69
2017-12-27T06:25:24.360Z,4.62
2017-12-27T06:26:24.055Z,4.62
2017-12-27T06:27:24.266Z,4.62
2017-12-27T06:28:24.169Z,4.69
2017-12-27T06:29:24.091Z,4.62
2017-12-27T06:30:24.353Z,4.62
2017-12-27T06:31:24.145Z,4.62
2017-12-27T06:32:24.083Z,4.62
2017-12-27T06:33:24.382Z,4.56
2017-12-27T06:34:24.258Z,4.62
2017-12-27T06:35:23.613Z,4.56
2017-12-27T06:36:24.324Z,4.56
2017-12-27T06:37:24.037Z,4.56
2017-12-27T06:38:24.195Z,4.56
2017-12-27T06:39:24.047Z,4.56
2017-12-27T06:40:24.457Z,4.5
2017-12-27T06:41:24.162Z,4.5
2017-12-27T06:42:23.983Z,4.5
2017-12-27T06:43:24.481Z,4.56
2017-12-27T06:44:24.389Z,4.5
2017-12-27T06:45:24.517Z,4.5
2017-12-27T06:46:24.385Z,4.5
2017-12-27T06:47:24.293Z,4.5
2017-12-27T06:48:24.402Z,4.44
2017-12-27T06:49:23.931Z,4.5
2017-12-27T06:50:24.296Z,4.5
2017-12-27T06:51:24.795Z,4.5
2017-12-27T06:52:24.339Z,4.44
2017-12-27T06:53:24.539Z,4.5
2017-12-27T06:54:24.514Z,4.44
2017-12-27T06:55:23.903Z,4.44
2017-12-27T06:56:24.439Z,4.44
2017-12-27T06:57:24.631Z,4.44
2017-12-27T06:58:24.816Z,4.44
2017-12-27T06:59:24.439Z,4.44
2017-12-27T07:00:24.081Z,4.37
2017-12-27T07:01:24.244Z,4.37
2017-12-27T07:02:24.377Z,4.31
2017-12-27T07:03:24.692Z,4.37
2017-12-27T07:04:24.228Z,4.31
2017-12-27T07:05:24.499Z,4.31
2017-12-27T07:06:24.657Z,4.37
2017-12-27T07:07:24.440Z,4.31
2017-12-27T07:08:24.250Z,4.31
2017-12-27T07:09:24.555Z,4.31
2017-12-27T07:10:24.464Z,4.37
2017-12-27T07:11:24.394Z,4.31
2017-12-27T07:12:24.582Z,4.37
2017-12-27T07:13:24.611Z,4.31
2017-12-27T07:14:24.586Z,4.31
2017-12-27T07:15:24.411Z,4.25
2017-12-27T07:16:24.541Z,4.31
2017-12-27T07:17:24.407Z,4.25
2017-12-27T07:18:24.416Z,4.31
2017-12-27T07:19:24.214Z,4.31
2017-12-27T07:20:24.022Z,4.25
2017-12-27T07:21:23.847Z,4.25
2017-12-27T07:22:24.367Z,4.31
2017-12-27T07:23:24.075Z,4.25
2017-12-27T07:24:24.137Z,4.31
2017-12-27T07:25:24.020Z,4.25
2017-12-27T07:26:24.265Z,4.25
2017-12-27T07:27:24.193Z,4.25
2017-12-27T07:28:23.912Z,4.25
2017-12-27T07:29:25.091Z,4.25
2017-12-27T07:30:24.062Z,4.25
2017-12-27T07:31:24.316Z,4.25
2017-12-27T07:32:24.042Z,4.25
2017-12-27T07:33:24.289Z,4.25
2017-12-27T07:34:24.397Z,4.19
2017-12-27T07:35:24.623Z,4.25
2017-12-27T07:36:24.492Z,4.19
2017-12-27T07:37:24.413Z,4.25
2017-12-27T07:38:24.428Z,4.19
2017-12-27T07:39:24.083Z,4.19
2017-12-27T07:40:24.290Z,4.19
2017-12-27T07:41:24.357Z,4.19
2017-12-27T07:42:24.224Z,4.19
2017-12-27T07:43:24.372Z,4.19
2017-12-27T07:44:24.315Z,4.19
2017-12-27T07:45:24.244Z,4.19
2017-12-27T07:46:24.502Z,4.19
2017-12-27T07:47:24.310Z,4.19
2017-12-27T07:48:24.249Z,4.19
2017-12-27T07:49:24.141Z,4.19
2017-12-27T07:50:24.555Z,4.12
2017-12-27T07:51:24.284Z,4.25
2017-12-27T07:52:24.585Z,4.19
2017-12-27T07:53:24.332Z,4.19
2017-12-27T07:54:24.067Z,4.19
2017-12-27T07:55:24.255Z,4.19
2017-12-27T07:56:24.218Z,4.19
2017-12-27T07:57:24.260Z,4.19
2017-12-27T07:58:24.252Z,4.19
2017-12-27T07:59:24.274Z,4.25
2017-12-27T08:00:24.434Z,4.25
2017-12-27T08:01:24.067Z,4.19
2017-12-27T08:02:24.626Z,4.25
2017-12-27T08:03:24.130Z,4.19
2017-12-27T08:04:24.242Z,4.19
2017-12-27T08:05:24.230Z,4.19
2017-12-27T08:06:24.552Z,4.19
2017-12-27T08:07:24.667Z,4.19
2017-12-27T08:08:24.864Z,4.25
2017-12-27T08:09:24.434Z,4.25
2017-12-27T08:10:24.422Z,4.19
2017-12-27T08:11:24.766Z,4.19
2017-12-27T08:12:24.168Z,4.25
2017-12-27T08:13:24.824Z,4.25
2017-12-27T08:14:24.088Z,4.25
2017-12-27T08:15:24.407Z,4.19
2017-12-27T08:16:24.316Z,4.25
2017-12-27T08:17:24.182Z,4.19
2017-12-27T08:18:24.320Z,4.19
2017-12-27T08:19:24.283Z,4.19
2017-12-27T08:20:24.434Z,4.19
2017-12-27T08:21:24.262Z,4.12
2017-12-27T08:22:23.833Z,4.19
2017-12-27T08:23:24.350Z,4.12
2017-12-27T08:24:24.174Z,4.19
2017-12-27T08:25:24.711Z,4.12
2017-12-27T08:26:24.798Z,4.12
2017-12-27T08:27:24.182Z,4.12
2017-12-27T08:28:24.328Z,4.12
2017-12-27T08:29:24.428Z,4.12
2017-12-27T08:32:38.601Z,4.12
2017-12-27T08:33:24.480Z,4.12
2017-12-27T08:34:24.622Z,4.12
2017-12-27T08:35:24.451Z,4.06
2017-12-27T08:36:23.330Z,4.06
2017-12-27T08:37:23.643Z,4.06
2017-12-27T08:38:23.761Z,4.06
2017-12-27T08:39:23.424Z,4.06
2017-12-27T08:40:23.229Z,4.06
2017-12-27T08:41:23.546Z,4.06
2017-12-27T08:42:23.536Z,4.06
2017-12-27T08:43:24.193Z,4.06
2017-12-27T08:44:23.412Z,4.06
2017-12-27T08:45:23.982Z,4.12
2017-12-27T08:46:23.480Z,4.06
2017-12-27T08:47:23.482Z,4.06
2017-12-27T08:48:23.261Z,4.06
2017-12-27T08:49:23.282Z,4.06
2017-12-27T08:50:23.473Z,4.06
2017-12-27T08:51:23.399Z,4.06
2017-12-27T08:52:24.213Z,4.06
2017-12-27T08:53:23.220Z,4.06
2017-12-27T08:54:23.054Z,4
2017-12-27T08:55:23.578Z,4
2017-12-27T08:56:23.216Z,4
2017-12-27T08:57:23.170Z,4
2017-12-27T08:58:23.577Z,4
2017-12-27T08:59:23.304Z,4
2017-12-27T09:00:23.369Z,3.94
2017-12-27T09:01:23.210Z,4
2017-12-27T09:02:23.208Z,4
2017-12-27T09:03:23.659Z,4
2017-12-27T09:04:23.489Z,4
2017-12-27T09:05:23.518Z,4
2017-12-27T09:06:23.413Z,4
2017-12-27T09:07:23.558Z,4
2017-12-27T09:08:23.604Z,4
2017-12-27T09:09:23.612Z,4
2017-12-27T09:10:23.352Z,4.06
2017-12-27T09:11:23.277Z,4
2017-12-27T09:12:23.550Z,4
2017-12-27T09:13:23.476Z,4
2017-12-27T09:14:23.152Z,4.06
2017-12-27T09:15:23.579Z,4.06
2017-12-27T09:16:23.570Z,4.12
2017-12-27T09:17:23.376Z,4.12
2017-12-27T09:18:23.216Z,4.12
2017-12-27T09:19:23.741Z,4.12
2017-12-27T09:20:24.666Z,4.19
2017-12-27T09:21:23.445Z,4.12
2017-12-27T09:22:23.234Z,4.19
2017-12-27T09:23:23.322Z,4.19
2017-12-27T09:24:23.400Z,4.25
2017-12-27T09:25:23.259Z,4.19
2017-12-27T09:26:23.584Z,4.25
2017-12-27T09:27:23.193Z,4.19
2017-12-27T09:28:23.256Z,4.25
2017-12-27T09:29:23.452Z,4.25
2017-12-27T09:30:23.563Z,4.25
2017-12-27T09:31:23.329Z,4.25
2017-12-27T09:32:23.409Z,4.31
2017-12-27T09:33:23.347Z,4.31
2017-12-27T09:34:23.213Z,4.31
2017-12-27T09:35:23.313Z,4.37
2017-12-27T09:36:23.477Z,4.37
2017-12-27T09:37:23.261Z,4.44
2017-12-27T09:38:23.311Z,4.5
2017-12-27T09:39:23.449Z,4.5
2017-12-27T09:40:23.280Z,4.5
2017-12-27T09:41:23.434Z,4.5
2017-12-27T09:42:23.419Z,4.5
2017-12-27T09:43:23.332Z,4.5
2017-12-27T09:44:23.490Z,4.5
2017-12-27T09:45:23.273Z,4.5
2017-12-27T09:46:23.303Z,4.5
2017-12-27T09:47:23.455Z,4.5
2017-12-27T09:48:23.419Z,4.5
2017-12-27T09:49:23.055Z,4.5
2017-12-27T09:50:23.266Z,4.5
2017-12-27T09:51:23.402Z,4.5
2017-12-27T09:52:23.419Z,4.5
2017-12-27T09:53:23.530Z,4.5
2017-12-27T09:54:23.324Z,4.5
2017-12-27T09:55:23.585Z,4.56
2017-12-27T09:56:23.208Z,4.5
2017-12-27T09:57:23.260Z,4.56
2017-12-27T09:58:23.243Z,4.56
2017-12-27T09:59:23.184Z,4.56
2017-12-27T10:00:23.363Z,4.56
2017-12-27T10:01:23.188Z,4.56
2017-12-27T10:02:23.396Z,4.56
2017-12-27T10:03:23.275Z,4.56
2017-12-27T10:04:23.057Z,4.56
2017-12-27T10:05:23.080Z,4.62
2017-12-27T10:06:23.392Z,4.62
2017-12-27T10:07:23.070Z,4.62
2017-12-27T10:08:23.285Z,4.62
2017-12-27T10:09:23.994Z,4.62
2017-12-27T10:10:23.251Z,4.69
2017-12-27T10:11:23.239Z,4.69
2017-12-27T10:12:23.251Z,4.69
2017-12-27T10:13:23.483Z,4.75
2017-12-27T10:14:23.354Z,4.81
2017-12-27T10:15:23.270Z,4.75
2017-12-27T10:16:23.276Z,4.81
2017-12-27T10:17:23.243Z,4.81
2017-12-27T10:18:23.384Z,4.81
2017-12-27T10:19:23.431Z,4.87
2017-12-27T10:20:23.319Z,4.87
2017-12-27T10:21:23.174Z,4.87
2017-12-27T10:22:23.365Z,4.87
2017-12-27T10:23:23.403Z,4.87
2017-12-27T10:24:23.242Z,4.94
2017-12-27T10:25:23.408Z,4.94
2017-12-27T10:26:23.219Z,4.94
2017-12-27T10:27:23.295Z,4.94
2017-12-27T10:28:23.239Z,4.94
2017-12-27T10:29:23.395Z,5
2017-12-27T10:30:23.464Z,5
2017-12-27T10:31:23.241Z,5.06
2017-12-27T10:32:23.112Z,5
2017-12-27T10:33:23.390Z,5.06
2017-12-27T10:34:23.343Z,5.12
2017-12-27T10:35:23.197Z,5.12
2017-12-27T10:36:23.256Z,5.12
2017-12-27T10:37:23.300Z,5.19
2017-12-27T10:38:23.493Z,5.19
2017-12-27T10:39:23.196Z,5.25
2017-12-27T10:40:23.413Z,5.25
2017-12-27T10:41:23.315Z,5.31
2017-12-27T10:42:23.269Z,5.31
2017-12-27T10:43:23.361Z,5.37
2017-12-27T10:44:23.235Z,5.37
2017-12-27T10:45:23.455Z,5.37
2017-12-27T10:46:23.364Z,5.44
2017-12-27T10:47:23.381Z,5.44
2017-12-27T10:48:23.317Z,5.44
2017-12-27T10:49:23.343Z,5.5
2017-12-27T10:50:23.214Z,5.5
2017-12-27T10:51:23.420Z,5.5
2017-12-27T10:52:23.325Z,5.5
2017-12-27T10:53:23.405Z,5.56
2017-12-27T10:54:23.389Z,5.56
2017-12-27T10:55:23.514Z,5.56
2017-12-27T10:56:23.351Z,5.56
2017-12-27T10:57:23.418Z,5.56
2017-12-27T10:58:23.491Z,5.56
2017-12-27T10:59:23.458Z,5.56
2017-12-27T11:00:23.324Z,5.62
2017-12-27T11:01:23.482Z,5.56
2017-12-27T11:02:23.428Z,5.56
2017-12-27T11:03:23.373Z,5.62
2017-12-27T11:04:23.314Z,5.62
2017-12-27T11:05:23.352Z,5.62
2017-12-27T11:06:23.614Z,5.69
2017-12-27T11:07:23.503Z,5.62
2017-12-27T11:08:23.366Z,5.69
2017-12-27T11:09:23.437Z,5.75
2017-12-27T11:10:23.251Z,5.69
2017-12-27T11:11:23.360Z,5.75
2017-12-27T11:12:23.371Z,5.75
2017-12-27T11:13:23.362Z,5.75
2017-12-27T11:14:23.452Z,5.75
2017-12-27T11:15:23.374Z,5.75
2017-12-27T11:16:23.406Z,5.75
2017-12-27T11:17:23.368Z,5.81
2017-12-27T11:18:23.389Z,5.81
2017-12-27T11:19:23.271Z,5.87
2017-12-27T11:20:23.361Z,5.81
2017-12-27T11:21:23.536Z,5.87
2017-12-27T11:22:23.267Z,5.87
2017-12-27T11:23:23.322Z,5.87
2017-12-27T11:24:23.446Z,5.87
2017-12-27T11:25:23.255Z,5.94
2017-12-27T11:26:23.552Z,5.94
2017-12-27T11:27:23.364Z,6
2017-12-27T11:28:23.234Z,6
2017-12-27T11:29:23.359Z,6
2017-12-27T11:30:23.578Z,6.06
2017-12-27T11:31:23.420Z,6.06
2017-12-27T11:32:23.378Z,6.06
2017-12-27T11:33:23.493Z,6
2017-12-27T11:34:23.521Z,6.06
2017-12-27T11:35:23.593Z,6
2017-12-27T11:36:23.442Z,6.06
2017-12-27T11:37:23.502Z,6
2017-12-27T11:38:23.321Z,6
2017-12-27T11:39:23.282Z,6
2017-12-27T11:40:23.436Z,6.06
2017-12-27T11:41:23.464Z,6
2017-12-27T11:42:23.470Z,6
2017-12-27T11:43:23.473Z,6
2017-12-27T11:44:23.378Z,6
2017-12-27T12:39:23.795Z,6
2017-12-27T12:40:23.810Z,5.94
2017-12-27T12:41:23.589Z,5.94
2017-12-27T12:42:23.774Z,5.94
2017-12-27T12:43:23.936Z,5.94
2017-12-27T12:44:26.112Z,5.94
2017-12-27T12:45:23.739Z,5.94
2017-12-27T12:46:23.668Z,5.94
2017-12-27T12:47:23.647Z,5.94
2017-12-27T12:48:23.859Z,5.94
2017-12-27T12:49:23.445Z,5.94
2017-12-27T12:50:23.619Z,5.94
2017-12-27T12:51:23.696Z,5.94
2017-12-27T12:52:23.764Z,5.94
2017-12-27T12:53:23.630Z,6
2017-12-27T12:54:23.828Z,5.94
2017-12-27T12:55:23.532Z,6
2017-12-27T12:56:23.756Z,5.94
2017-12-27T12:57:23.699Z,6
2017-12-27T12:58:23.674Z,6
2017-12-27T12:59:23.650Z,6
2017-12-27T13:00:24.084Z,6.06
2017-12-27T13:01:23.797Z,6.06
2017-12-27T13:02:23.683Z,6.06
2017-12-27T13:03:24.796Z,6.06
2017-12-27T13:04:23.738Z,6.06
2017-12-27T13:05:23.844Z,6.06
2017-12-27T13:06:23.736Z,6.06
2017-12-27T13:07:24.767Z,6.06
2017-12-27T13:08:23.704Z,6.06
2017-12-27T13:09:23.797Z,6.06
2017-12-27T13:10:23.485Z,6.12
2017-12-27T13:11:23.860Z,6.12
2017-12-27T13:12:23.766Z,6.12
2017-12-27T13:13:24.475Z,6.12
2017-12-27T13:14:24.658Z,6.12
2017-12-27T13:15:24.554Z,6.12
2017-12-27T13:16:23.716Z,6.19
2017-12-27T13:17:23.614Z,6.19
2017-12-27T13:18:23.824Z,6.19
2017-12-27T13:19:23.554Z,6.19
2017-12-27T13:20:23.722Z,6.25
2017-12-27T13:21:23.956Z,6.25
2017-12-27T13:22:23.707Z,6.25
2017-12-27T13:23:23.634Z,6.25
2017-12-27T13:24:23.658Z,6.25
2017-12-27T13:25:23.852Z,6.31
2017-12-27T13:26:23.965Z,6.25
2017-12-27T13:27:23.714Z,6.31
2017-12-27T13:28:24.169Z,6.25
2017-12-27T13:29:23.885Z,6.31
2017-12-27T13:30:23.714Z,6.31
2017-12-27T13:31:23.793Z,6.31
2017-12-27T13:32:23.745Z,6.31
2017-12-27T13:33:24.181Z,6.31
2017-12-27T13:34:24.246Z,6.31
2017-12-27T13:35:23.783Z,6.31
2017-12-27T13:36:25.384Z,6.31
2017-12-27T13:37:23.859Z,6.37
2017-12-27T13:38:23.648Z,6.37
2017-12-27T13:39:23.661Z,6.37
2017-12-27T13:40:23.857Z,6.31
2017-12-27T13:41:23.818Z,6.37
2017-12-27T13:42:23.997Z,6.37
2017-12-27T13:43:23.762Z,6.37
2017-12-27T13:44:23.640Z,6.37
2017-12-27T13:45:23.877Z,6.37
2017-12-27T13:46:23.678Z,6.37
2017-12-27T13:47:23.980Z,6.37
2017-12-27T13:48:24.011Z,6.37
2017-12-27T13:49:23.869Z,6.37
2017-12-27T13:50:23.886Z,6.37
2017-12-27T13:51:27.527Z,6.31
2017-12-27T13:52:23.889Z,6.31
2017-12-27T13:53:23.748Z,6.31
2017-12-27T13:54:24.042Z,6.31
2017-12-27T13:55:23.766Z,6.25
2017-12-27T13:56:23.769Z,6.31
2017-12-27T13:57:23.866Z,6.25
2017-12-27T13:58:23.998Z,6.25
2017-12-27T13:59:24.068Z,6.25
2017-12-27T14:00:24.070Z,6.19
2017-12-27T14:01:23.932Z,6.19
2017-12-27T14:02:23.882Z,6.19
2017-12-27T14:03:23.972Z,6.19
2017-12-27T14:04:24.625Z,6.19
2017-12-27T14:05:25.027Z,6.19
2017-12-27T14:06:24.069Z,6.12
2017-12-27T14:07:25.071Z,6.12
2017-12-27T14:08:24.035Z,6.06
2017-12-27T14:09:24.017Z,6.12
2017-12-27T14:10:24.151Z,6.06
2017-12-27T14:11:25.188Z,6.06
2017-12-27T14:12:24.089Z,6
2017-12-27T14:13:23.905Z,6
2017-12-27T14:14:24.074Z,5.94
2017-12-27T14:15:24.060Z,5.94
2017-12-27T14:16:24.778Z,5.94
2017-12-27T14:17:23.892Z,5.94
2017-12-27T14:18:24.161Z,5.87
2017-12-27T14:19:24.665Z,5.87
2017-12-27T14:20:24.106Z,5.81
2017-12-27T14:21:24.011Z,5.81
2017-12-27T14:22:24.069Z,5.81
2017-12-27T14:23:25.466Z,5.75
2017-12-27T14:24:24.109Z,5.69
2017-12-27T14:25:24.021Z,5.69
2017-12-27T14:26:23.856Z,5.69
2017-12-27T14:27:24.068Z,5.62
2017-12-27T14:28:23.786Z,5.62
2017-12-27T14:29:24.659Z,5.56
2017-12-27T14:30:25.153Z,5.56
2017-12-27T14:31:24.636Z,5.56
2017-12-27T14:32:24.271Z,5.62
2017-12-27T14:35:23.947Z,5.5
2017-12-27T14:36:26.511Z,5.56
2017-12-27T14:37:24.363Z,5.56
2017-12-27T14:38:24.105Z,5.5
2017-12-27T14:39:24.237Z,5.56
2017-12-27T14:40:24.489Z,5.56
2017-12-27T14:41:25.717Z,5.56
2017-12-27T14:42:25.594Z,5.56
2017-12-27T14:43:27.096Z,5.56